Crown Of Scandinavia — OXRA6 — position and weather

sailwx.info

Track history (hours):
 
Tides and Currents Weather Stations Pressure Air Temp Water Temp Dewpoint Dewpoint Depression Visibility Wind Speed Wind Dir Waves Ship Positions

Crown Of Scandinavia

Last reported at 2018-Jul-22 01:21 UTC. Time now 2018-Jul-22 03:22 UTC.
Position N 57°14' E 011°52'.

Length 171 m; draft 6.3 m.

Type: Ship. MMSI: 219592000.

Date/timePositionNaut miles runAvg speedWind from/ knotsBaromVisibWave heightAir tempDewpointWater temp
2018-Jul-22 01:21N 57°14' E 011°52'617.0
2018-Jul-22 01:00N 57°19' E 011°47'817.0
2018-Jul-22 00:30N 57°26' E 011°38'917.5
2018-Jul-22 00:00N 57°33' E 011°29'918.4
2018-Jul-21 23:30N 57°41' E 011°19'918.2
2018-Jul-21 23:00N 57°48' E 011°10'917.1
2018-Jul-21 22:30N 57°56' E 011°02'816.6
2018-Jul-21 22:00N 58°03' E 010°56'816.3
2018-Jul-21 21:30N 58°11' E 010°52'916.4
2018-Jul-21 20:59N 58°19' E 010°46'816.5
2018-Jul-21 20:30N 58°26' E 010°40'815.7
2018-Jul-21 20:00N 58°34' E 010°37'815.6
2018-Jul-21 19:31N 58°42' E 010°36'815.6
2018-Jul-21 19:00N 58°50' E 010°35'815.9
2018-Jul-21 18:30N 58°58' E 010°36'815.9
2018-Jul-21 18:00N 59°05' E 010°38'816.1
2018-Jul-21 17:30N 59°14' E 010°37'816.5
2018-Jul-21 17:00N 59°22' E 010°34'816.0
2018-Jul-21 16:30N 59°30' E 010°34'816.0
2018-Jul-21 16:01N 59°37' E 010°38'714.2
2018-Jul-21 15:31N 59°44' E 010°33'815.8
2018-Jul-21 15:00N 59°52' E 010°37'4 8.6
2018-Jul-21 14:30N 59°54' E 010°45'0 0.0
2018-Jul-21 14:00N 59°54' E 010°45'0 0.0
2018-Jul-21 13:30N 59°54' E 010°45'0 0.0
2018-Jul-21 13:00N 59°54' E 010°45'0 0.0
2018-Jul-21 12:30N 59°54' E 010°45'0 0.0
2018-Jul-21 12:00N 59°54' E 010°45'0 0.0
2018-Jul-21 11:30N 59°54' E 010°45'0 0.0
2018-Jul-21 11:00N 59°54' E 010°45'0 0.0
2018-Jul-21 10:30N 59°54' E 010°45'0 0.0
2018-Jul-21 10:00N 59°54' E 010°45'0 0.0
2018-Jul-21 09:30N 59°54' E 010°45'0 0.0
2018-Jul-21 09:00N 59°54' E 010°45'0 0.0
2018-Jul-21 08:30N 59°54' E 010°45'0 0.0
2018-Jul-21 08:00N 59°54' E 010°45'0 0.3
2018-Jul-21 07:31N 59°54' E 010°45'611.7
2018-Jul-21 07:00N 59°50' E 010°36'714.9
2018-Jul-21 06:30N 59°43' E 010°35'713.7
2018-Jul-21 06:00N 59°36' E 010°38'714.6
2018-Jul-21 05:30N 59°29' E 010°35'815.5
2018-Jul-21 05:00N 59°21' E 010°35'816.3
2018-Jul-21 04:30N 59°13' E 010°38'816.2
2018-Jul-21 04:00N 59°05' E 010°40'815.7
2018-Jul-21 03:31N 58°57' E 010°42'816.1
2018-Jul-21 03:00N 58°49' E 010°44'816.0
2018-Jul-21 02:30N 58°41' E 010°46'816.1
2018-Jul-21 02:00N 58°34' E 010°51'816.1
2018-Jul-21 01:30N 58°26' E 010°56'816.4
2018-Jul-21 01:00N 58°18' E 011°00'816.6
2018-Jul-21 00:30N 58°10' E 011°04'816.5
2018-Jul-21 00:00N 58°02' E 011°09'816.6
2018-Jul-20 23:30N 57°54' E 011°13'816.3
2018-Jul-20 23:00N 57°47' E 011°18'815.8
2018-Jul-20 22:30N 57°39' E 011°22'816.0
2018-Jul-20 22:00N 57°31' E 011°27'816.1
2018-Jul-20 21:30N 57°24' E 011°31'816.6
2018-Jul-20 21:00N 57°16' E 011°36'816.8
2018-Jul-20 20:30N 57°08' E 011°40'816.8
2018-Jul-20 20:00N 57°00' E 011°46'3116.6
2018-Jul-20 18:09N 56°33' E 012°12'416.1
2018-Jul-20 17:52N 56°29' E 012°16'1116.0
2018-Jul-20 17:11N 56°19' E 012°24'416.3
2018-Jul-20 16:56N 56°15' E 012°26'716.3
2018-Jul-20 16:30N 56°09' E 012°32'815.8
2018-Jul-20 16:00N 56°02' E 012°40'815.6
2018-Jul-20 15:30N 55°55' E 012°44'815.2
2018-Jul-20 15:00N 55°47' E 012°43'612.4
2018-Jul-20 14:30N 55°42' E 012°36'0 0.3
2018-Jul-20 14:00N 55°42' E 012°36'0 0.0
2018-Jul-20 13:30N 55°42' E 012°36'0 0.0
2018-Jul-20 13:00N 55°42' E 012°36'0 0.0
2018-Jul-20 12:30N 55°42' E 012°36'0 0.0
2018-Jul-20 12:00N 55°42' E 012°36'0 0.0
2018-Jul-20 11:27N 55°42' E 012°36'0 0.0
2018-Jul-20 11:00N 55°42' E 012°36'0 0.0
2018-Jul-20 10:27N 55°42' E 012°36'0 0.0
2018-Jul-20 10:00N 55°42' E 012°36'0 0.0
2018-Jul-20 09:30N 55°42' E 012°36'0 0.0
2018-Jul-20 09:00N 55°42' E 012°36'0 0.0
2018-Jul-20 08:30N 55°42' E 012°36'0 0.0
2018-Jul-20 08:00N 55°42' E 012°36'0 0.8
2018-Jul-20 07:30N 55°42' E 012°36'5 9.5
2018-Jul-20 07:01N 55°46' E 012°41'714.4
2018-Jul-20 06:31N 55°54' E 012°40'815.5
2018-Jul-20 06:01N 56°01' E 012°39'816.9
2018-Jul-20 05:30N 56°08' E 012°30'916.8
2018-Jul-20 05:00N 56°16' E 012°24'1417.3
2018-Jul-20 04:10N 56°30' E 012°17'317.5
2018-Jul-20 04:00N 56°32' E 012°15'1017.4
2018-Jul-20 03:24N 56°42' E 012°10'917.5
2018-Jul-20 02:55N 56°51' E 012°05'717.5
2018-Jul-20 02:30N 56°57' E 012°01'917.5
2018-Jul-20 02:00N 57°06' E 011°57'917.3
2018-Jul-20 01:30N 57°14' E 011°51'917.5
2018-Jul-20 01:00N 57°21' E 011°43'917.5
2018-Jul-20 00:30N 57°29' E 011°34'817.0
2018-Jul-20 00:00N 57°37' E 011°28'917.4
2018-Jul-19 23:30N 57°44' E 011°20'918.0
2018-Jul-19 23:00N 57°52' E 011°12'917.2
2018-Jul-19 22:30N 57°60' E 011°05'816.5
2018-Jul-19 22:00N 58°07' E 010°57'816.4
2018-Jul-19 21:30N 58°14' E 010°50'816.6
2018-Jul-19 21:00N 58°22' E 010°44'816.8
2018-Jul-19 20:30N 58°30' E 010°38'917.0
2018-Jul-19 20:00N 58°38' E 010°36'816.8
2018-Jul-19 19:30N 58°47' E 010°35'816.7
2018-Jul-19 19:00N 58°55' E 010°35'816.9
2018-Jul-19 18:30N 59°03' E 010°37'816.7
2018-Jul-19 18:00N 59°12' E 010°38'816.7
2018-Jul-19 17:30N 59°20' E 010°35'816.2
2018-Jul-19 17:00N 59°28' E 010°34'816.3
2018-Jul-19 16:30N 59°36' E 010°38'713.8
2018-Jul-19 16:00N 59°43' E 010°35'815.8
2018-Jul-19 15:30N 59°51' E 010°35'612.1
2018-Jul-19 15:00N 59°54' E 010°45'0 0.3
2018-Jul-19 14:29N 59°54' E 010°45'0 0.0
2018-Jul-19 13:29N 59°54' E 010°45'0 0.0
2018-Jul-19 12:59N 59°54' E 010°45'0 0.0
2018-Jul-19 12:29N 59°54' E 010°45'0 0.0
2018-Jul-19 11:59N 59°54' E 010°45'0 0.0
2018-Jul-19 11:29N 59°54' E 010°45'0 0.0
2018-Jul-19 10:59N 59°54' E 010°45'0 0.0
2018-Jul-19 10:29N 59°54' E 010°45'0 0.0
2018-Jul-19 09:59N 59°54' E 010°45'0 0.0
2018-Jul-19 09:29N 59°54' E 010°45'0 0.0
2018-Jul-19 08:59N 59°54' E 010°45'0 0.0
2018-Jul-19 08:29N 59°54' E 010°45'0 0.0
2018-Jul-19 07:59N 59°54' E 010°45'0 0.3
2018-Jul-19 07:31N 59°54' E 010°45'511.0
2018-Jul-19 07:00N 59°50' E 010°36'815.2
2018-Jul-19 06:30N 59°43' E 010°35'714.7
2018-Jul-19 06:01N 59°36' E 010°38'816.2
2018-Jul-19 05:31N 59°28' E 010°34'816.0
2018-Jul-19 05:00N 59°20' E 010°36'917.8
2018-Jul-19 04:31N 59°11' E 010°39'917.9
2018-Jul-19 04:01N 59°02' E 010°41'917.9
2018-Jul-19 03:30N 58°53' E 010°42'917.9
2018-Jul-19 03:01N 58°44' E 010°45'918.3
2018-Jul-19 02:31N 58°35' E 010°48'918.8
2018-Jul-19 02:01N 58°27' E 010°54'918.7
2018-Jul-19 01:31N 58°18' E 010°59'918.8
2018-Jul-19 01:01N 58°09' E 011°05'918.7
2018-Jul-19 00:31N 57°60' E 011°10'918.0
2018-Jul-19 00:01N 57°51' E 011°15'917.3
2018-Jul-18 23:31N 57°43' E 011°20'816.8
2018-Jul-18 23:01N 57°35' E 011°24'917.1
2018-Jul-18 22:31N 57°27' E 011°29'917.1
2018-Jul-18 22:00N 57°18' E 011°34'815.6
2018-Jul-18 21:31N 57°11' E 011°38'816.1
2018-Jul-18 21:00N 57°03' E 011°43'1215.8
2018-Jul-18 20:15N 56°53' E 011°53'415.7
2018-Jul-18 20:00N 56°49' E 011°56'815.8
2018-Jul-18 19:30N 56°42' E 012°03'815.7
2018-Jul-18 19:00N 56°35' E 012°09'815.8
2018-Jul-18 18:30N 56°28' E 012°15'816.3
2018-Jul-18 18:00N 56°21' E 012°21'816.7
2018-Jul-18 17:31N 56°13' E 012°27'917.2
2018-Jul-18 17:00N 56°06' E 012°35'816.2
2018-Jul-18 16:30N 55°58' E 012°42'816.2
2018-Jul-18 16:01N 55°51' E 012°45'714.6
2018-Jul-18 15:30N 55°44' E 012°40'3 5.4
2018-Jul-18 15:00N 55°42' E 012°36'0 0.0
2018-Jul-18 14:29N 55°42' E 012°36'0 0.0
2018-Jul-18 13:59N 55°42' E 012°36'0 0.0
2018-Jul-18 13:29N 55°42' E 012°36'0 0.0
2018-Jul-18 12:59N 55°42' E 012°36'0 0.0
2018-Jul-18 12:29N 55°42' E 012°36'0 0.0
2018-Jul-18 11:59N 55°42' E 012°36'0 0.0
2018-Jul-18 11:29N 55°42' E 012°36'0 0.0
2018-Jul-18 10:29N 55°42' E 012°36'0 0.0
2018-Jul-18 09:59N 55°42' E 012°36'0 0.0
2018-Jul-18 09:29N 55°42' E 012°36'0 0.0
2018-Jul-18 08:59N 55°42' E 012°36'0 0.0
2018-Jul-18 08:29N 55°42' E 012°36'0 0.0
2018-Jul-18 07:59N 55°42' E 012°36'0 0.9
2018-Jul-18 07:30N 55°42' E 012°36'511.0
2018-Jul-18 07:00N 55°47' E 012°42'815.9
2018-Jul-18 06:30N 55°55' E 012°39'816.1
2018-Jul-18 06:01N 56°03' E 012°39'815.8
2018-Jul-18 05:30N 56°09' E 012°30'815.9
2018-Jul-18 05:00N 56°16' E 012°24'816.2
2018-Jul-18 04:30N 56°24' E 012°20'816.9
2018-Jul-18 04:00N 56°32' E 012°16'917.6
2018-Jul-18 03:30N 56°40' E 012°11'917.4
2018-Jul-18 03:00N 56°49' E 012°07'1417.0
2018-Jul-18 02:11N 57°02' E 011°59'417.1
2018-Jul-18 01:59N 57°05' E 011°57'817.0
2018-Jul-18 01:30N 57°13' E 011°52'816.9
2018-Jul-18 01:00N 57°20' E 011°44'917.0
2018-Jul-18 00:30N 57°27' E 011°35'917.1
2018-Jul-18 00:00N 57°34' E 011°27'917.9
2018-Jul-17 23:30N 57°43' E 011°19'917.4
2018-Jul-17 23:00N 57°50' E 011°11'917.2
2018-Jul-17 22:30N 57°57' E 011°02'917.1
2018-Jul-17 22:00N 58°05' E 010°56'917.2
2018-Jul-17 21:30N 58°13' E 010°50'816.8
2018-Jul-17 21:00N 58°21' E 010°44'815.9
2018-Jul-17 20:30N 58°28' E 010°38'815.1
2018-Jul-17 20:00N 58°35' E 010°34'815.4
2018-Jul-17 19:30N 58°43' E 010°35'816.2
2018-Jul-17 19:00N 58°51' E 010°35'816.7
2018-Jul-17 18:30N 58°60' E 010°36'917.2
2018-Jul-17 18:00N 59°08' E 010°38'917.6
2018-Jul-17 17:30N 59°17' E 010°36'917.8
2018-Jul-17 17:00N 59°26' E 010°33'917.3
2018-Jul-17 16:30N 59°34' E 010°38'714.8
2018-Jul-17 16:01N 59°41' E 010°36'815.1
2018-Jul-17 15:31N 59°49' E 010°34'713.1
2018-Jul-17 15:00N 59°54' E 010°43'1 2.1
2018-Jul-17 14:29N 59°54' E 010°45'0 0.0
2018-Jul-17 13:59N 59°54' E 010°45'0 0.0
2018-Jul-17 13:29N 59°54' E 010°45'0 0.0
2018-Jul-17 12:59N 59°54' E 010°45'0 0.0
2018-Jul-17 12:29N 59°54' E 010°45'0 0.0
2018-Jul-17 11:59N 59°54' E 010°45'0 0.0
2018-Jul-17 11:29N 59°54' E 010°45'0 0.0
2018-Jul-17 10:59N 59°54' E 010°45'0 0.0
2018-Jul-17 10:29N 59°54' E 010°45'0 0.0
2018-Jul-17 09:59N 59°54' E 010°45'0 0.0
2018-Jul-17 09:29N 59°54' E 010°45'0 0.0
2018-Jul-17 08:59N 59°54' E 010°45'0 0.0
2018-Jul-17 08:29N 59°54' E 010°45'0 0.0
2018-Jul-17 07:59N 59°54' E 010°45'0 0.2
2018-Jul-17 07:30N 59°54' E 010°45'611.6
2018-Jul-17 07:00N 59°50' E 010°36'815.3
2018-Jul-17 06:30N 59°43' E 010°35'714.5
2018-Jul-17 06:00N 59°35' E 010°38'815.8
2018-Jul-17 05:31N 59°28' E 010°34'815.8
2018-Jul-17 05:01N 59°20' E 010°36'816.1
2018-Jul-17 04:30N 59°12' E 010°38'815.6
2018-Jul-17 04:01N 59°04' E 010°40'815.8
2018-Jul-17 03:31N 58°56' E 010°41'815.9
2018-Jul-17 03:00N 58°49' E 010°44'816.0
2018-Jul-17 02:31N 58°41' E 010°46'816.5
2018-Jul-17 02:01N 58°33' E 010°49'816.8
2018-Jul-17 01:31N 58°24' E 010°53'917.2
2018-Jul-17 01:01N 58°16' E 010°58'918.0
2018-Jul-17 00:31N 58°08' E 011°03'1717.3
2018-Jul-16 23:31N 57°51' E 011°14'816.2
2018-Jul-16 23:01N 57°44' E 011°22'816.4
2018-Jul-16 22:31N 57°37' E 011°28'816.7
2018-Jul-16 22:00N 57°29' E 011°30'816.7
2018-Jul-16 21:31N 57°20' E 011°33'816.7
2018-Jul-16 21:00N 57°13' E 011°38'816.6
2018-Jul-16 20:31N 57°05' E 011°43'816.9
2018-Jul-16 20:01N 56°57' E 011°49'816.7
2018-Jul-16 19:31N 56°50' E 011°56'816.6
2018-Jul-16 19:00N 56°42' E 012°03'816.1
2018-Jul-16 18:30N 56°35' E 012°09'816.4
2018-Jul-16 18:01N 56°28' E 012°16'816.4
2018-Jul-16 17:31N 56°20' E 012°21'816.6
2018-Jul-16 17:01N 56°12' E 012°27'816.8
2018-Jul-16 16:31N 56°05' E 012°36'816.1
2018-Jul-16 16:01N 55°58' E 012°42'815.7
2018-Jul-16 15:31N 55°50' E 012°44'815.1
2018-Jul-16 15:00N 55°43' E 012°39'2 4.4
2018-Jul-16 14:30N 55°42' E 012°36'0 0.0
2018-Jul-16 13:57N 55°42' E 012°36'0 0.0
2018-Jul-16 13:30N 55°42' E 012°36'0 0.0
2018-Jul-16 13:00N 55°42' E 012°36'0 0.0
2018-Jul-16 12:30N 55°42' E 012°36'0 0.0
2018-Jul-16 12:00N 55°42' E 012°36'0 0.0
2018-Jul-16 11:30N 55°42' E 012°36'0 0.0
2018-Jul-16 11:00N 55°42' E 012°36'0 0.0
2018-Jul-16 10:27N 55°42' E 012°36'0 0.0
2018-Jul-16 10:00N 55°42' E 012°36'0 0.0
2018-Jul-16 09:27N 55°42' E 012°36'0 0.0
2018-Jul-16 09:00N 55°42' E 012°36'0 0.0
2018-Jul-16 08:30N 55°42' E 012°36'0 0.0
2018-Jul-16 08:00N 55°42' E 012°36'0 0.4
2018-Jul-16 07:30N 55°42' E 012°36'5 9.3
2018-Jul-16 07:00N 55°46' E 012°41'815.6
2018-Jul-16 06:30N 55°54' E 012°40'816.2
2018-Jul-16 06:00N 56°02' E 012°39'815.8
2018-Jul-16 05:30N 56°08' E 012°30'916.5
2018-Jul-16 04:58N 56°16' E 012°24'817.3
2018-Jul-16 04:29N 56°24' E 012°20'918.2
2018-Jul-16 03:58N 56°33' E 012°15'918.2
2018-Jul-16 03:27N 56°42' E 012°10'818.0
2018-Jul-16 03:00N 56°50' E 012°07'917.7
2018-Jul-16 02:30N 56°58' E 012°03'1816.7
2018-Jul-16 01:27N 57°15' E 011°53'716.6
2018-Jul-16 01:00N 57°21' E 011°44'817.0
2018-Jul-16 00:30N 57°28' E 011°36'816.9
2018-Jul-16 00:00N 57°36' E 011°29'816.8
2018-Jul-15 23:30N 57°43' E 011°21'917.8
2018-Jul-15 23:00N 57°51' E 011°12'816.8
2018-Jul-15 22:30N 57°57' E 011°02'816.6
2018-Jul-15 22:00N 58°05' E 010°56'816.6
2018-Jul-15 21:30N 58°12' E 010°50'816.3
2018-Jul-15 21:00N 58°20' E 010°44'816.4
2018-Jul-15 20:30N 58°27' E 010°39'816.6
2018-Jul-15 20:00N 58°36' E 010°35'816.5
2018-Jul-15 19:30N 58°44' E 010°34'816.8
2018-Jul-15 19:00N 58°52' E 010°36'917.1
2018-Jul-15 18:30N 59°01' E 010°39'816.5
2018-Jul-15 18:00N 59°09' E 010°39'816.4
2018-Jul-15 17:30N 59°17' E 010°36'816.1
2018-Jul-15 17:00N 59°25' E 010°34'816.0
2018-Jul-15 16:30N 59°33' E 010°37'815.2
2018-Jul-15 16:00N 59°40' E 010°37'714.2
2018-Jul-15 15:30N 59°47' E 010°34'714.8
2018-Jul-15 15:00N 59°54' E 010°41'2 3.0
2018-Jul-15 14:25N 59°54' E 010°45'0 0.0
2018-Jul-15 13:58N 59°54' E 010°45'0 0.0
2018-Jul-15 13:28N 59°54' E 010°45'0 0.0
2018-Jul-15 12:58N 59°54' E 010°45'0 0.0
2018-Jul-15 12:28N 59°54' E 010°45'0 0.0
2018-Jul-15 11:58N 59°54' E 010°45'0 0.0
2018-Jul-15 11:28N 59°54' E 010°45'0 0.0
2018-Jul-15 10:58N 59°54' E 010°45'0 0.0
2018-Jul-15 10:28N 59°54' E 010°45'0 0.0
2018-Jul-15 09:58N 59°54' E 010°45'0 0.0
2018-Jul-15 09:28N 59°54' E 010°45'0 0.0
2018-Jul-15 08:58N 59°54' E 010°45'0 0.0
2018-Jul-15 08:28N 59°54' E 010°45'0 0.0
2018-Jul-15 07:58N 59°54' E 010°45'0 0.2
2018-Jul-15 07:31N 59°54' E 010°45'611.7
2018-Jul-15 07:00N 59°50' E 010°36'714.8
2018-Jul-15 06:31N 59°43' E 010°35'713.8
2018-Jul-15 06:00N 59°36' E 010°38'815.0
2018-Jul-15 05:30N 59°29' E 010°35'815.3
2018-Jul-15 05:00N 59°21' E 010°35'815.9
2018-Jul-15 04:30N 59°13' E 010°38'816.1
2018-Jul-15 04:00N 59°05' E 010°40'815.9
2018-Jul-15 03:30N 58°57' E 010°42'815.5
2018-Jul-15 03:00N 58°50' E 010°44'815.5
2018-Jul-15 02:30N 58°42' E 010°46'815.7
2018-Jul-15 02:00N 58°34' E 010°50'816.0
2018-Jul-15 01:30N 58°27' E 010°54'815.9
2018-Jul-15 01:00N 58°19' E 010°59'815.7
2018-Jul-15 00:30N 58°12' E 011°03'816.2
2018-Jul-15 00:00N 58°04' E 011°08'816.7
2018-Jul-14 23:30N 57°56' E 011°12'816.7
2018-Jul-14 23:00N 57°48' E 011°17'816.8
2018-Jul-14 22:30N 57°40' E 011°22'816.8
2018-Jul-14 22:00N 57°32' E 011°27'917.2
2018-Jul-14 21:30N 57°24' E 011°31'816.8
2018-Jul-14 21:00N 57°16' E 011°36'816.6
2018-Jul-14 20:30N 57°08' E 011°40'816.8
2018-Jul-14 20:00N 57°00' E 011°47'916.5
2018-Jul-14 19:27N 56°52' E 011°55'716.3
2018-Jul-14 19:00N 56°46' E 012°01'816.6
2018-Jul-14 18:30N 56°38' E 012°08'816.8
2018-Jul-14 18:00N 56°31' E 012°13'916.7
2018-Jul-14 17:28N 56°22' E 012°19'816.8
2018-Jul-14 17:00N 56°15' E 012°25'816.4
2018-Jul-14 16:30N 56°08' E 012°32'816.0
2018-Jul-14 16:00N 56°01' E 012°40'815.7
2018-Jul-14 15:30N 55°54' E 012°44'815.5
2018-Jul-14 15:00N 55°46' E 012°42'510.4
2018-Jul-14 14:30N 55°42' E 012°36'0 0.0
2018-Jul-14 13:27N 55°42' E 012°36'0 0.0
2018-Jul-14 13:00N 55°42' E 012°36'0 0.0
2018-Jul-14 12:30N 55°42' E 012°36'0 0.0
2018-Jul-14 12:00N 55°42' E 012°36'0 0.0
2018-Jul-14 11:30N 55°42' E 012°36'0 0.0
2018-Jul-14 11:00N 55°42' E 012°36'0 0.0
2018-Jul-14 10:30N 55°42' E 012°36'0 0.0
2018-Jul-14 10:00N 55°42' E 012°36'0 0.0
2018-Jul-14 09:30N 55°42' E 012°36'0 0.0
2018-Jul-14 09:00N 55°42' E 012°36'0 0.0
2018-Jul-14 08:30N 55°42' E 012°36'0 0.0
2018-Jul-14 08:00N 55°42' E 012°36'0 0.7
2018-Jul-14 07:30N 55°42' E 012°36'510.1
2018-Jul-14 07:00N 55°46' E 012°41'815.5
2018-Jul-14 06:30N 55°54' E 012°39'815.8
2018-Jul-14 06:00N 56°02' E 012°39'815.7
2018-Jul-14 05:29N 56°08' E 012°29'715.5
2018-Jul-14 05:00N 56°15' E 012°23'816.2
2018-Jul-14 04:30N 56°22' E 012°20'816.6
2018-Jul-14 04:00N 56°30' E 012°16'816.7
2018-Jul-14 03:30N 56°39' E 012°12'2316.9
2018-Jul-14 02:09N 57°00' E 012°00'316.8
2018-Jul-14 01:58N 57°03' E 011°59'816.8
2018-Jul-14 01:30N 57°11' E 011°54'816.7
2018-Jul-14 01:00N 57°18' E 011°47'816.9
2018-Jul-14 00:30N 57°26' E 011°40'817.0
2018-Jul-14 00:00N 57°33' E 011°33'816.8
2018-Jul-13 23:30N 57°41' E 011°28'816.9
2018-Jul-13 23:00N 57°49' E 011°22'917.2
2018-Jul-13 22:30N 57°57' E 011°16'817.0
2018-Jul-13 22:00N 58°05' E 011°11'816.3
2018-Jul-13 21:30N 58°13' E 011°05'816.4
2018-Jul-13 21:01N 58°20' E 011°00'816.4
2018-Jul-13 20:31N 58°28' E 010°54'816.3
2018-Jul-13 20:00N 58°34' E 010°44'816.0
2018-Jul-13 19:30N 58°41' E 010°35'816.4
2018-Jul-13 19:00N 58°49' E 010°35'816.5
2018-Jul-13 18:30N 58°57' E 010°35'816.6
2018-Jul-13 18:00N 59°06' E 010°37'816.7
2018-Jul-13 17:30N 59°14' E 010°37'816.8
2018-Jul-13 17:00N 59°22' E 010°34'816.4
2018-Jul-13 16:30N 59°30' E 010°34'815.9
2018-Jul-13 16:00N 59°38' E 010°37'713.5
2018-Jul-13 15:31N 59°45' E 010°33'816.0
2018-Jul-13 15:00N 59°52' E 010°38'4 3.8
2018-Jul-13 13:58N 59°54' E 010°45'0 0.0
2018-Jul-13 13:28N 59°54' E 010°45'0 0.0
2018-Jul-13 12:58N 59°54' E 010°45'0 0.0
2018-Jul-13 12:28N 59°54' E 010°45'0 0.0
2018-Jul-13 11:58N 59°54' E 010°45'0 0.0
2018-Jul-13 11:28N 59°54' E 010°45'0 0.0
2018-Jul-13 10:58N 59°54' E 010°45'0 0.0
2018-Jul-13 10:28N 59°54' E 010°45'0 0.0
2018-Jul-13 09:58N 59°54' E 010°45'0 0.0
2018-Jul-13 09:28N 59°54' E 010°45'0 0.0
2018-Jul-13 08:58N 59°54' E 010°45'0 0.0
2018-Jul-13 08:28N 59°54' E 010°45'0 0.0
2018-Jul-13 07:58N 59°54' E 010°45'0 0.2
2018-Jul-13 07:30N 59°54' E 010°45'511.0
2018-Jul-13 07:00N 59°51' E 010°37'815.4
2018-Jul-13 06:30N 59°43' E 010°35'713.2
2018-Jul-13 06:00N 59°36' E 010°38'714.8
2018-Jul-13 05:30N 59°29' E 010°35'815.5
2018-Jul-13 05:00N 59°22' E 010°36'815.6
2018-Jul-13 04:30N 59°14' E 010°38'815.4
2018-Jul-13 04:00N 59°06' E 010°40'815.7
2018-Jul-13 03:30N 58°58' E 010°41'815.9
2018-Jul-13 03:00N 58°50' E 010°42'816.2
2018-Jul-13 02:30N 58°42' E 010°44'816.1
2018-Jul-13 02:00N 58°35' E 010°48'816.3
2018-Jul-13 01:30N 58°27' E 010°54'816.7
2018-Jul-13 01:00N 58°19' E 010°59'816.8
2018-Jul-13 00:30N 58°11' E 011°03'816.9
2018-Jul-13 00:00N 58°03' E 011°07'816.6
2018-Jul-12 23:30N 57°55' E 011°11'816.4
2018-Jul-12 23:00N 57°47' E 011°18'917.0
2018-Jul-12 22:30N 57°39' E 011°22'816.7
2018-Jul-12 22:00N 57°31' E 011°27'817.0
2018-Jul-12 21:30N 57°23' E 011°32'917.2
2018-Jul-12 21:01N 57°15' E 011°36'917.2
2018-Jul-12 20:30N 57°07' E 011°41'816.9
2018-Jul-12 20:00N 56°59' E 011°47'816.2
2018-Jul-12 19:30N 56°52' E 011°54'816.1
2018-Jul-12 19:00N 56°45' E 012°01'816.2
2018-Jul-12 18:30N 56°37' E 012°07'816.2
2018-Jul-12 18:00N 56°30' E 012°14'816.2
2018-Jul-12 17:30N 56°23' E 012°19'815.9
2018-Jul-12 17:00N 56°15' E 012°25'816.1
2018-Jul-12 16:30N 56°08' E 012°32'917.1
2018-Jul-12 16:00N 56°01' E 012°40'815.5
2018-Jul-12 15:30N 55°54' E 012°44'815.2
2018-Jul-12 15:00N 55°46' E 012°42'5 9.5
2018-Jul-12 14:27N 55°42' E 012°36'0 0.0
2018-Jul-12 13:57N 55°42' E 012°36'0 0.0
2018-Jul-12 13:30N 55°42' E 012°36'0 0.0
2018-Jul-12 12:54N 55°42' E 012°36'0 0.0
2018-Jul-12 12:30N 55°42' E 012°36'0 0.0
2018-Jul-12 11:59N 55°42' E 012°36'0 0.0
2018-Jul-12 11:30N 55°42' E 012°36'0 0.0
2018-Jul-12 10:57N 55°42' E 012°36'0 0.0
2018-Jul-12 10:21N 55°42' E 012°36'0 0.0
2018-Jul-12 09:51N 55°42' E 012°36'0 0.0
2018-Jul-12 09:30N 55°42' E 012°36'0 0.0
2018-Jul-12 09:00N 55°42' E 012°36'0 0.0
2018-Jul-12 08:30N 55°42' E 012°36'0 0.0
2018-Jul-12 08:00N 55°42' E 012°36'0 0.8
2018-Jul-12 07:30N 55°42' E 012°36'611.0
2018-Jul-12 07:00N 55°47' E 012°42'815.6
2018-Jul-12 06:30N 55°55' E 012°39'816.1
2018-Jul-12 06:00N 56°03' E 012°39'815.1
2018-Jul-12 05:30N 56°08' E 012°30'815.7
2018-Jul-12 05:00N 56°15' E 012°24'916.9
2018-Jul-12 04:30N 56°23' E 012°17'817.1
2018-Jul-12 04:00N 56°31' E 012°13'816.9
2018-Jul-12 03:30N 56°39' E 012°07'917.0
2018-Jul-12 03:00N 56°46' E 012°00'917.1
2018-Jul-12 02:30N 56°53' E 011°50'816.4
2018-Jul-12 02:00N 56°60' E 011°42'816.8
2018-Jul-12 01:30N 57°08' E 011°37'  
Track history (hours):
 
Tides and Currents Weather Stations Pressure Air Temp Water Temp Dewpoint Dewpoint Depression Visibility Wind Speed Wind Dir Waves Ship Positions

Crown Of Scandinavia

Last reported at 2018-Jul-22 01:21 UTC. Time now 2018-Jul-22 03:22 UTC.
Position N 57°14' E 011°52'.

Length 171 m; draft 6.3 m.

Type: Ship. MMSI: 219592000.

Date/timePositionNaut miles runAvg speedWind from/ knotsBaromVisibWave heightAir tempDewpointWater temp
2018-Jul-22 01:21N 57°14' E 011°52'617.0
2018-Jul-22 01:00N 57°19' E 011°47'817.0
2018-Jul-22 00:30N 57°26' E 011°38'917.5
2018-Jul-22 00:00N 57°33' E 011°29'918.4
2018-Jul-21 23:30N 57°41' E 011°19'918.2
2018-Jul-21 23:00N 57°48' E 011°10'917.1
2018-Jul-21 22:30N 57°56' E 011°02'816.6
2018-Jul-21 22:00N 58°03' E 010°56'816.3
2018-Jul-21 21:30N 58°11' E 010°52'916.4
2018-Jul-21 20:59N 58°19' E 010°46'816.5
2018-Jul-21 20:30N 58°26' E 010°40'815.7
2018-Jul-21 20:00N 58°34' E 010°37'815.6
2018-Jul-21 19:31N 58°42' E 010°36'815.6
2018-Jul-21 19:00N 58°50' E 010°35'815.9
2018-Jul-21 18:30N 58°58' E 010°36'815.9
2018-Jul-21 18:00N 59°05' E 010°38'816.1
2018-Jul-21 17:30N 59°14' E 010°37'816.5
2018-Jul-21 17:00N 59°22' E 010°34'816.0
2018-Jul-21 16:30N 59°30' E 010°34'816.0
2018-Jul-21 16:01N 59°37' E 010°38'714.2
2018-Jul-21 15:31N 59°44' E 010°33'815.8
2018-Jul-21 15:00N 59°52' E 010°37'4 8.6
2018-Jul-21 14:30N 59°54' E 010°45'0 0.0
2018-Jul-21 14:00N 59°54' E 010°45'0 0.0
2018-Jul-21 13:30N 59°54' E 010°45'0 0.0
2018-Jul-21 13:00N 59°54' E 010°45'0 0.0
2018-Jul-21 12:30N 59°54' E 010°45'0 0.0
2018-Jul-21 12:00N 59°54' E 010°45'0 0.0
2018-Jul-21 11:30N 59°54' E 010°45'0 0.0
2018-Jul-21 11:00N 59°54' E 010°45'0 0.0
2018-Jul-21 10:30N 59°54' E 010°45'0 0.0
2018-Jul-21 10:00N 59°54' E 010°45'0 0.0
2018-Jul-21 09:30N 59°54' E 010°45'0 0.0
2018-Jul-21 09:00N 59°54' E 010°45'0 0.0
2018-Jul-21 08:30N 59°54' E 010°45'0 0.0
2018-Jul-21 08:00N 59°54' E 010°45'0 0.3
2018-Jul-21 07:31N 59°54' E 010°45'611.7
2018-Jul-21 07:00N 59°50' E 010°36'714.9
2018-Jul-21 06:30N 59°43' E 010°35'713.7
2018-Jul-21 06:00N 59°36' E 010°38'714.6
2018-Jul-21 05:30N 59°29' E 010°35'815.5
2018-Jul-21 05:00N 59°21' E 010°35'816.3
2018-Jul-21 04:30N 59°13' E 010°38'816.2
2018-Jul-21 04:00N 59°05' E 010°40'815.7
2018-Jul-21 03:31N 58°57' E 010°42'816.1
2018-Jul-21 03:00N 58°49' E 010°44'816.0
2018-Jul-21 02:30N 58°41' E 010°46'816.1
2018-Jul-21 02:00N 58°34' E 010°51'816.1
2018-Jul-21 01:30N 58°26' E 010°56'816.4
2018-Jul-21 01:00N 58°18' E 011°00'816.6
2018-Jul-21 00:30N 58°10' E 011°04'816.5
2018-Jul-21 00:00N 58°02' E 011°09'816.6
2018-Jul-20 23:30N 57°54' E 011°13'816.3
2018-Jul-20 23:00N 57°47' E 011°18'815.8
2018-Jul-20 22:30N 57°39' E 011°22'816.0
2018-Jul-20 22:00N 57°31' E 011°27'816.1
2018-Jul-20 21:30N 57°24' E 011°31'816.6
2018-Jul-20 21:00N 57°16' E 011°36'816.8
2018-Jul-20 20:30N 57°08' E 011°40'816.8
2018-Jul-20 20:00N 57°00' E 011°46'3116.6
2018-Jul-20 18:09N 56°33' E 012°12'416.1
2018-Jul-20 17:52N 56°29' E 012°16'1116.0
2018-Jul-20 17:11N 56°19' E 012°24'416.3
2018-Jul-20 16:56N 56°15' E 012°26'716.3
2018-Jul-20 16:30N 56°09' E 012°32'815.8
2018-Jul-20 16:00N 56°02' E 012°40'815.6
2018-Jul-20 15:30N 55°55' E 012°44'815.2
2018-Jul-20 15:00N 55°47' E 012°43'612.4
2018-Jul-20 14:30N 55°42' E 012°36'0 0.3
2018-Jul-20 14:00N 55°42' E 012°36'0 0.0
2018-Jul-20 13:30N 55°42' E 012°36'0 0.0
2018-Jul-20 13:00N 55°42' E 012°36'0 0.0
2018-Jul-20 12:30N 55°42' E 012°36'0 0.0
2018-Jul-20 12:00N 55°42' E 012°36'0 0.0
2018-Jul-20 11:27N 55°42' E 012°36'0 0.0
2018-Jul-20 11:00N 55°42' E 012°36'0 0.0
2018-Jul-20 10:27N 55°42' E 012°36'0 0.0
2018-Jul-20 10:00N 55°42' E 012°36'0 0.0
2018-Jul-20 09:30N 55°42' E 012°36'0 0.0
2018-Jul-20 09:00N 55°42' E 012°36'0 0.0
2018-Jul-20 08:30N 55°42' E 012°36'0 0.0
2018-Jul-20 08:00N 55°42' E 012°36'0 0.8
2018-Jul-20 07:30N 55°42' E 012°36'5 9.5
2018-Jul-20 07:01N 55°46' E 012°41'714.4
2018-Jul-20 06:31N 55°54' E 012°40'815.5
2018-Jul-20 06:01N 56°01' E 012°39'816.9
2018-Jul-20 05:30N 56°08' E 012°30'916.8
2018-Jul-20 05:00N 56°16' E 012°24'1417.3
2018-Jul-20 04:10N 56°30' E 012°17'317.5
2018-Jul-20 04:00N 56°32' E 012°15'1017.4
2018-Jul-20 03:24N 56°42' E 012°10'917.5
2018-Jul-20 02:55N 56°51' E 012°05'717.5
2018-Jul-20 02:30N 56°57' E 012°01'917.5
2018-Jul-20 02:00N 57°06' E 011°57'917.3
2018-Jul-20 01:30N 57°14' E 011°51'917.5
2018-Jul-20 01:00N 57°21' E 011°43'917.5
2018-Jul-20 00:30N 57°29' E 011°34'817.0
2018-Jul-20 00:00N 57°37' E 011°28'917.4
2018-Jul-19 23:30N 57°44' E 011°20'918.0
2018-Jul-19 23:00N 57°52' E 011°12'917.2
2018-Jul-19 22:30N 57°60' E 011°05'816.5
2018-Jul-19 22:00N 58°07' E 010°57'816.4
2018-Jul-19 21:30N 58°14' E 010°50'816.6
2018-Jul-19 21:00N 58°22' E 010°44'816.8
2018-Jul-19 20:30N 58°30' E 010°38'917.0
2018-Jul-19 20:00N 58°38' E 010°36'816.8
2018-Jul-19 19:30N 58°47' E 010°35'816.7
2018-Jul-19 19:00N 58°55' E 010°35'816.9
2018-Jul-19 18:30N 59°03' E 010°37'816.7
2018-Jul-19 18:00N 59°12' E 010°38'816.7
2018-Jul-19 17:30N 59°20' E 010°35'816.2
2018-Jul-19 17:00N 59°28' E 010°34'816.3
2018-Jul-19 16:30N 59°36' E 010°38'713.8
2018-Jul-19 16:00N 59°43' E 010°35'815.8
2018-Jul-19 15:30N 59°51' E 010°35'612.1
2018-Jul-19 15:00N 59°54' E 010°45'0 0.3
2018-Jul-19 14:29N 59°54' E 010°45'0 0.0
2018-Jul-19 13:29N 59°54' E 010°45'0 0.0
2018-Jul-19 12:59N 59°54' E 010°45'0 0.0
2018-Jul-19 12:29N 59°54' E 010°45'0 0.0
2018-Jul-19 11:59N 59°54' E 010°45'0 0.0
2018-Jul-19 11:29N 59°54' E 010°45'0 0.0
2018-Jul-19 10:59N 59°54' E 010°45'0 0.0
2018-Jul-19 10:29N 59°54' E 010°45'0 0.0
2018-Jul-19 09:59N 59°54' E 010°45'0 0.0
2018-Jul-19 09:29N 59°54' E 010°45'0 0.0
2018-Jul-19 08:59N 59°54' E 010°45'0 0.0
2018-Jul-19 08:29N 59°54' E 010°45'0 0.0
2018-Jul-19 07:59N 59°54' E 010°45'0 0.3
2018-Jul-19 07:31N 59°54' E 010°45'511.0
2018-Jul-19 07:00N 59°50' E 010°36'815.2
2018-Jul-19 06:30N 59°43' E 010°35'714.7
2018-Jul-19 06:01N 59°36' E 010°38'816.2
2018-Jul-19 05:31N 59°28' E 010°34'816.0
2018-Jul-19 05:00N 59°20' E 010°36'917.8
2018-Jul-19 04:31N 59°11' E 010°39'917.9
2018-Jul-19 04:01N 59°02' E 010°41'917.9
2018-Jul-19 03:30N 58°53' E 010°42'917.9
2018-Jul-19 03:01N 58°44' E 010°45'918.3
2018-Jul-19 02:31N 58°35' E 010°48'918.8
2018-Jul-19 02:01N 58°27' E 010°54'918.7
2018-Jul-19 01:31N 58°18' E 010°59'918.8
2018-Jul-19 01:01N 58°09' E 011°05'918.7
2018-Jul-19 00:31N 57°60' E 011°10'918.0
2018-Jul-19 00:01N 57°51' E 011°15'917.3
2018-Jul-18 23:31N 57°43' E 011°20'816.8
2018-Jul-18 23:01N 57°35' E 011°24'917.1
2018-Jul-18 22:31N 57°27' E 011°29'917.1
2018-Jul-18 22:00N 57°18' E 011°34'815.6
2018-Jul-18 21:31N 57°11' E 011°38'816.1
2018-Jul-18 21:00N 57°03' E 011°43'1215.8
2018-Jul-18 20:15N 56°53' E 011°53'415.7
2018-Jul-18 20:00N 56°49' E 011°56'815.8
2018-Jul-18 19:30N 56°42' E 012°03'815.7
2018-Jul-18 19:00N 56°35' E 012°09'815.8
2018-Jul-18 18:30N 56°28' E 012°15'816.3
2018-Jul-18 18:00N 56°21' E 012°21'816.7
2018-Jul-18 17:31N 56°13' E 012°27'917.2
2018-Jul-18 17:00N 56°06' E 012°35'816.2
2018-Jul-18 16:30N 55°58' E 012°42'816.2
2018-Jul-18 16:01N 55°51' E 012°45'714.6
2018-Jul-18 15:30N 55°44' E 012°40'3 5.4
2018-Jul-18 15:00N 55°42' E 012°36'0 0.0
2018-Jul-18 14:29N 55°42' E 012°36'0 0.0
2018-Jul-18 13:59N 55°42' E 012°36'0 0.0
2018-Jul-18 13:29N 55°42' E 012°36'0 0.0
2018-Jul-18 12:59N 55°42' E 012°36'0 0.0
2018-Jul-18 12:29N 55°42' E 012°36'0 0.0
2018-Jul-18 11:59N 55°42' E 012°36'0 0.0
2018-Jul-18 11:29N 55°42' E 012°36'0 0.0
2018-Jul-18 10:29N 55°42' E 012°36'0 0.0
2018-Jul-18 09:59N 55°42' E 012°36'0 0.0
2018-Jul-18 09:29N 55°42' E 012°36'0 0.0
2018-Jul-18 08:59N 55°42' E 012°36'0 0.0
2018-Jul-18 08:29N 55°42' E 012°36'0 0.0
2018-Jul-18 07:59N 55°42' E 012°36'0 0.9
2018-Jul-18 07:30N 55°42' E 012°36'511.0
2018-Jul-18 07:00N 55°47' E 012°42'815.9
2018-Jul-18 06:30N 55°55' E 012°39'816.1
2018-Jul-18 06:01N 56°03' E 012°39'815.8
2018-Jul-18 05:30N 56°09' E 012°30'815.9
2018-Jul-18 05:00N 56°16' E 012°24'816.2
2018-Jul-18 04:30N 56°24' E 012°20'816.9
2018-Jul-18 04:00N 56°32' E 012°16'917.6
2018-Jul-18 03:30N 56°40' E 012°11'917.4
2018-Jul-18 03:00N 56°49' E 012°07'1417.0
2018-Jul-18 02:11N 57°02' E 011°59'417.1
2018-Jul-18 01:59N 57°05' E 011°57'817.0
2018-Jul-18 01:30N 57°13' E 011°52'816.9
2018-Jul-18 01:00N 57°20' E 011°44'917.0
2018-Jul-18 00:30N 57°27' E 011°35'917.1
2018-Jul-18 00:00N 57°34' E 011°27'917.9
2018-Jul-17 23:30N 57°43' E 011°19'917.4
2018-Jul-17 23:00N 57°50' E 011°11'917.2
2018-Jul-17 22:30N 57°57' E 011°02'917.1
2018-Jul-17 22:00N 58°05' E 010°56'917.2
2018-Jul-17 21:30N 58°13' E 010°50'816.8
2018-Jul-17 21:00N 58°21' E 010°44'815.9
2018-Jul-17 20:30N 58°28' E 010°38'815.1
2018-Jul-17 20:00N 58°35' E 010°34'815.4
2018-Jul-17 19:30N 58°43' E 010°35'816.2
2018-Jul-17 19:00N 58°51' E 010°35'816.7
2018-Jul-17 18:30N 58°60' E 010°36'917.2
2018-Jul-17 18:00N 59°08' E 010°38'917.6
2018-Jul-17 17:30N 59°17' E 010°36'917.8
2018-Jul-17 17:00N 59°26' E 010°33'917.3
2018-Jul-17 16:30N 59°34' E 010°38'714.8
2018-Jul-17 16:01N 59°41' E 010°36'815.1
2018-Jul-17 15:31N 59°49' E 010°34'713.1
2018-Jul-17 15:00N 59°54' E 010°43'1 2.1
2018-Jul-17 14:29N 59°54' E 010°45'0 0.0
2018-Jul-17 13:59N 59°54' E 010°45'0 0.0
2018-Jul-17 13:29N 59°54' E 010°45'0 0.0
2018-Jul-17 12:59N 59°54' E 010°45'0 0.0
2018-Jul-17 12:29N 59°54' E 010°45'0 0.0
2018-Jul-17 11:59N 59°54' E 010°45'0 0.0
2018-Jul-17 11:29N 59°54' E 010°45'0 0.0
2018-Jul-17 10:59N 59°54' E 010°45'0 0.0
2018-Jul-17 10:29N 59°54' E 010°45'0 0.0
2018-Jul-17 09:59N 59°54' E 010°45'0 0.0
2018-Jul-17 09:29N 59°54' E 010°45'0 0.0
2018-Jul-17 08:59N 59°54' E 010°45'0 0.0
2018-Jul-17 08:29N 59°54' E 010°45'0 0.0
2018-Jul-17 07:59N 59°54' E 010°45'0 0.2
2018-Jul-17 07:30N 59°54' E 010°45'611.6
2018-Jul-17 07:00N 59°50' E 010°36'815.3
2018-Jul-17 06:30N 59°43' E 010°35'714.5
2018-Jul-17 06:00N 59°35' E 010°38'815.8
2018-Jul-17 05:31N 59°28' E 010°34'815.8
2018-Jul-17 05:01N 59°20' E 010°36'816.1
2018-Jul-17 04:30N 59°12' E 010°38'815.6
2018-Jul-17 04:01N 59°04' E 010°40'815.8
2018-Jul-17 03:31N 58°56' E 010°41'815.9
2018-Jul-17 03:00N 58°49' E 010°44'816.0
2018-Jul-17 02:31N 58°41' E 010°46'816.5
2018-Jul-17 02:01N 58°33' E 010°49'816.8
2018-Jul-17 01:31N 58°24' E 010°53'917.2
2018-Jul-17 01:01N 58°16' E 010°58'918.0
2018-Jul-17 00:31N 58°08' E 011°03'1717.3
2018-Jul-16 23:31N 57°51' E 011°14'816.2
2018-Jul-16 23:01N 57°44' E 011°22'816.4
2018-Jul-16 22:31N 57°37' E 011°28'816.7
2018-Jul-16 22:00N 57°29' E 011°30'816.7
2018-Jul-16 21:31N 57°20' E 011°33'816.7
2018-Jul-16 21:00N 57°13' E 011°38'816.6
2018-Jul-16 20:31N 57°05' E 011°43'816.9
2018-Jul-16 20:01N 56°57' E 011°49'816.7
2018-Jul-16 19:31N 56°50' E 011°56'816.6
2018-Jul-16 19:00N 56°42' E 012°03'816.1
2018-Jul-16 18:30N 56°35' E 012°09'816.4
2018-Jul-16 18:01N 56°28' E 012°16'816.4
2018-Jul-16 17:31N 56°20' E 012°21'816.6
2018-Jul-16 17:01N 56°12' E 012°27'816.8
2018-Jul-16 16:31N 56°05' E 012°36'816.1
2018-Jul-16 16:01N 55°58' E 012°42'815.7
2018-Jul-16 15:31N 55°50' E 012°44'815.1
2018-Jul-16 15:00N 55°43' E 012°39'2 4.4
2018-Jul-16 14:30N 55°42' E 012°36'0 0.0
2018-Jul-16 13:57N 55°42' E 012°36'0 0.0
2018-Jul-16 13:30N 55°42' E 012°36'0 0.0
2018-Jul-16 13:00N 55°42' E 012°36'0 0.0
2018-Jul-16 12:30N 55°42' E 012°36'0 0.0
2018-Jul-16 12:00N 55°42' E 012°36'0 0.0
2018-Jul-16 11:30N 55°42' E 012°36'0 0.0
2018-Jul-16 11:00N 55°42' E 012°36'0 0.0
2018-Jul-16 10:27N 55°42' E 012°36'0 0.0
2018-Jul-16 10:00N 55°42' E 012°36'0 0.0
2018-Jul-16 09:27N 55°42' E 012°36'0 0.0
2018-Jul-16 09:00N 55°42' E 012°36'0 0.0
2018-Jul-16 08:30N 55°42' E 012°36'0 0.0
2018-Jul-16 08:00N 55°42' E 012°36'0 0.4
2018-Jul-16 07:30N 55°42' E 012°36'5 9.3
2018-Jul-16 07:00N 55°46' E 012°41'815.6
2018-Jul-16 06:30N 55°54' E 012°40'816.2
2018-Jul-16 06:00N 56°02' E 012°39'815.8
2018-Jul-16 05:30N 56°08' E 012°30'916.5
2018-Jul-16 04:58N 56°16' E 012°24'817.3
2018-Jul-16 04:29N 56°24' E 012°20'918.2
2018-Jul-16 03:58N 56°33' E 012°15'918.2
2018-Jul-16 03:27N 56°42' E 012°10'818.0
2018-Jul-16 03:00N 56°50' E 012°07'917.7
2018-Jul-16 02:30N 56°58' E 012°03'1816.7
2018-Jul-16 01:27N 57°15' E 011°53'716.6
2018-Jul-16 01:00N 57°21' E 011°44'817.0
2018-Jul-16 00:30N 57°28' E 011°36'816.9
2018-Jul-16 00:00N 57°36' E 011°29'816.8
2018-Jul-15 23:30N 57°43' E 011°21'917.8
2018-Jul-15 23:00N 57°51' E 011°12'816.8
2018-Jul-15 22:30N 57°57' E 011°02'816.6
2018-Jul-15 22:00N 58°05' E 010°56'816.6
2018-Jul-15 21:30N 58°12' E 010°50'816.3
2018-Jul-15 21:00N 58°20' E 010°44'816.4
2018-Jul-15 20:30N 58°27' E 010°39'816.6
2018-Jul-15 20:00N 58°36' E 010°35'816.5
2018-Jul-15 19:30N 58°44' E 010°34'816.8
2018-Jul-15 19:00N 58°52' E 010°36'917.1
2018-Jul-15 18:30N 59°01' E 010°39'816.5
2018-Jul-15 18:00N 59°09' E 010°39'816.4
2018-Jul-15 17:30N 59°17' E 010°36'816.1
2018-Jul-15 17:00N 59°25' E 010°34'816.0
2018-Jul-15 16:30N 59°33' E 010°37'815.2
2018-Jul-15 16:00N 59°40' E 010°37'714.2
2018-Jul-15 15:30N 59°47' E 010°34'714.8
2018-Jul-15 15:00N 59°54' E 010°41'2 3.0
2018-Jul-15 14:25N 59°54' E 010°45'0 0.0
2018-Jul-15 13:58N 59°54' E 010°45'0 0.0
2018-Jul-15 13:28N 59°54' E 010°45'0 0.0
2018-Jul-15 12:58N 59°54' E 010°45'0 0.0
2018-Jul-15 12:28N 59°54' E 010°45'0 0.0
2018-Jul-15 11:58N 59°54' E 010°45'0 0.0
2018-Jul-15 11:28N 59°54' E 010°45'0 0.0
2018-Jul-15 10:58N 59°54' E 010°45'0 0.0
2018-Jul-15 10:28N 59°54' E 010°45'0 0.0
2018-Jul-15 09:58N 59°54' E 010°45'0 0.0
2018-Jul-15 09:28N 59°54' E 010°45'0 0.0
2018-Jul-15 08:58N 59°54' E 010°45'0 0.0
2018-Jul-15 08:28N 59°54' E 010°45'0 0.0
2018-Jul-15 07:58N 59°54' E 010°45'0 0.2
2018-Jul-15 07:31N 59°54' E 010°45'611.7
2018-Jul-15 07:00N 59°50' E 010°36'714.8
2018-Jul-15 06:31N 59°43' E 010°35'713.8
2018-Jul-15 06:00N 59°36' E 010°38'815.0
2018-Jul-15 05:30N 59°29' E 010°35'815.3
2018-Jul-15 05:00N 59°21' E 010°35'815.9
2018-Jul-15 04:30N 59°13' E 010°38'816.1
2018-Jul-15 04:00N 59°05' E 010°40'815.9
2018-Jul-15 03:30N 58°57' E 010°42'815.5
2018-Jul-15 03:00N 58°50' E 010°44'815.5
2018-Jul-15 02:30N 58°42' E 010°46'815.7
2018-Jul-15 02:00N 58°34' E 010°50'816.0
2018-Jul-15 01:30N 58°27' E 010°54'815.9
2018-Jul-15 01:00N 58°19' E 010°59'815.7
2018-Jul-15 00:30N 58°12' E 011°03'816.2
2018-Jul-15 00:00N 58°04' E 011°08'816.7
2018-Jul-14 23:30N 57°56' E 011°12'816.7
2018-Jul-14 23:00N 57°48' E 011°17'816.8
2018-Jul-14 22:30N 57°40' E 011°22'816.8
2018-Jul-14 22:00N 57°32' E 011°27'917.2
2018-Jul-14 21:30N 57°24' E 011°31'816.8
2018-Jul-14 21:00N 57°16' E 011°36'816.6
2018-Jul-14 20:30N 57°08' E 011°40'816.8
2018-Jul-14 20:00N 57°00' E 011°47'916.5
2018-Jul-14 19:27N 56°52' E 011°55'716.3
2018-Jul-14 19:00N 56°46' E 012°01'816.6
2018-Jul-14 18:30N 56°38' E 012°08'816.8
2018-Jul-14 18:00N 56°31' E 012°13'916.7
2018-Jul-14 17:28N 56°22' E 012°19'816.8
2018-Jul-14 17:00N 56°15' E 012°25'816.4
2018-Jul-14 16:30N 56°08' E 012°32'816.0
2018-Jul-14 16:00N 56°01' E 012°40'815.7
2018-Jul-14 15:30N 55°54' E 012°44'815.5
2018-Jul-14 15:00N 55°46' E 012°42'510.4
2018-Jul-14 14:30N 55°42' E 012°36'0 0.0
2018-Jul-14 13:27N 55°42' E 012°36'0 0.0
2018-Jul-14 13:00N 55°42' E 012°36'0 0.0
2018-Jul-14 12:30N 55°42' E 012°36'0 0.0
2018-Jul-14 12:00N 55°42' E 012°36'0 0.0
2018-Jul-14 11:30N 55°42' E 012°36'0 0.0
2018-Jul-14 11:00N 55°42' E 012°36'0 0.0
2018-Jul-14 10:30N 55°42' E 012°36'0 0.0
2018-Jul-14 10:00N 55°42' E 012°36'0 0.0
2018-Jul-14 09:30N 55°42' E 012°36'0 0.0
2018-Jul-14 09:00N 55°42' E 012°36'0 0.0
2018-Jul-14 08:30N 55°42' E 012°36'0 0.0
2018-Jul-14 08:00N 55°42' E 012°36'0 0.7
2018-Jul-14 07:30N 55°42' E 012°36'510.1
2018-Jul-14 07:00N 55°46' E 012°41'815.5
2018-Jul-14 06:30N 55°54' E 012°39'815.8
2018-Jul-14 06:00N 56°02' E 012°39'815.7
2018-Jul-14 05:29N 56°08' E 012°29'715.5
2018-Jul-14 05:00N 56°15' E 012°23'816.2
2018-Jul-14 04:30N 56°22' E 012°20'816.6
2018-Jul-14 04:00N 56°30' E 012°16'816.7
2018-Jul-14 03:30N 56°39' E 012°12'2316.9
2018-Jul-14 02:09N 57°00' E 012°00'316.8
2018-Jul-14 01:58N 57°03' E 011°59'816.8
2018-Jul-14 01:30N 57°11' E 011°54'816.7
2018-Jul-14 01:00N 57°18' E 011°47'816.9
2018-Jul-14 00:30N 57°26' E 011°40'817.0
2018-Jul-14 00:00N 57°33' E 011°33'816.8
2018-Jul-13 23:30N 57°41' E 011°28'816.9
2018-Jul-13 23:00N 57°49' E 011°22'917.2
2018-Jul-13 22:30N 57°57' E 011°16'817.0
2018-Jul-13 22:00N 58°05' E 011°11'816.3
2018-Jul-13 21:30N 58°13' E 011°05'816.4
2018-Jul-13 21:01N 58°20' E 011°00'816.4
2018-Jul-13 20:31N 58°28' E 010°54'816.3
2018-Jul-13 20:00N 58°34' E 010°44'816.0
2018-Jul-13 19:30N 58°41' E 010°35'816.4
2018-Jul-13 19:00N 58°49' E 010°35'816.5
2018-Jul-13 18:30N 58°57' E 010°35'816.6
2018-Jul-13 18:00N 59°06' E 010°37'816.7
2018-Jul-13 17:30N 59°14' E 010°37'816.8
2018-Jul-13 17:00N 59°22' E 010°34'816.4
2018-Jul-13 16:30N 59°30' E 010°34'815.9
2018-Jul-13 16:00N 59°38' E 010°37'713.5
2018-Jul-13 15:31N 59°45' E 010°33'816.0
2018-Jul-13 15:00N 59°52' E 010°38'4 3.8
2018-Jul-13 13:58N 59°54' E 010°45'0 0.0
2018-Jul-13 13:28N 59°54' E 010°45'0 0.0
2018-Jul-13 12:58N 59°54' E 010°45'0 0.0
2018-Jul-13 12:28N 59°54' E 010°45'0 0.0
2018-Jul-13 11:58N 59°54' E 010°45'0 0.0
2018-Jul-13 11:28N 59°54' E 010°45'0 0.0
2018-Jul-13 10:58N 59°54' E 010°45'0 0.0
2018-Jul-13 10:28N 59°54' E 010°45'0 0.0
2018-Jul-13 09:58N 59°54' E 010°45'0 0.0
2018-Jul-13 09:28N 59°54' E 010°45'0 0.0
2018-Jul-13 08:58N 59°54' E 010°45'0 0.0
2018-Jul-13 08:28N 59°54' E 010°45'0 0.0
2018-Jul-13 07:58N 59°54' E 010°45'0 0.2
2018-Jul-13 07:30N 59°54' E 010°45'511.0
2018-Jul-13 07:00N 59°51' E 010°37'815.4
2018-Jul-13 06:30N 59°43' E 010°35'713.2
2018-Jul-13 06:00N 59°36' E 010°38'714.8
2018-Jul-13 05:30N 59°29' E 010°35'815.5
2018-Jul-13 05:00N 59°22' E 010°36'815.6
2018-Jul-13 04:30N 59°14' E 010°38'815.4
2018-Jul-13 04:00N 59°06' E 010°40'815.7
2018-Jul-13 03:30N 58°58' E 010°41'815.9
2018-Jul-13 03:00N 58°50' E 010°42'816.2
2018-Jul-13 02:30N 58°42' E 010°44'816.1
2018-Jul-13 02:00N 58°35' E 010°48'816.3
2018-Jul-13 01:30N 58°27' E 010°54'816.7
2018-Jul-13 01:00N 58°19' E 010°59'816.8
2018-Jul-13 00:30N 58°11' E 011°03'816.9
2018-Jul-13 00:00N 58°03' E 011°07'816.6
2018-Jul-12 23:30N 57°55' E 011°11'816.4
2018-Jul-12 23:00N 57°47' E 011°18'917.0
2018-Jul-12 22:30N 57°39' E 011°22'816.7
2018-Jul-12 22:00N 57°31' E 011°27'817.0
2018-Jul-12 21:30N 57°23' E 011°32'917.2
2018-Jul-12 21:01N 57°15' E 011°36'917.2
2018-Jul-12 20:30N 57°07' E 011°41'816.9
2018-Jul-12 20:00N 56°59' E 011°47'816.2
2018-Jul-12 19:30N 56°52' E 011°54'816.1
2018-Jul-12 19:00N 56°45' E 012°01'816.2
2018-Jul-12 18:30N 56°37' E 012°07'816.2
2018-Jul-12 18:00N 56°30' E 012°14'816.2
2018-Jul-12 17:30N 56°23' E 012°19'815.9
2018-Jul-12 17:00N 56°15' E 012°25'816.1
2018-Jul-12 16:30N 56°08' E 012°32'917.1
2018-Jul-12 16:00N 56°01' E 012°40'815.5
2018-Jul-12 15:30N 55°54' E 012°44'815.2
2018-Jul-12 15:00N 55°46' E 012°42'5 9.5
2018-Jul-12 14:27N 55°42' E 012°36'0 0.0
2018-Jul-12 13:57N 55°42' E 012°36'0 0.0
2018-Jul-12 13:30N 55°42' E 012°36'0 0.0
2018-Jul-12 12:54N 55°42' E 012°36'0 0.0
2018-Jul-12 12:30N 55°42' E 012°36'0 0.0
2018-Jul-12 11:59N 55°42' E 012°36'0 0.0
2018-Jul-12 11:30N 55°42' E 012°36'0 0.0
2018-Jul-12 10:57N 55°42' E 012°36'0 0.0
2018-Jul-12 10:21N 55°42' E 012°36'0 0.0
2018-Jul-12 09:51N 55°42' E 012°36'0 0.0
2018-Jul-12 09:30N 55°42' E 012°36'0 0.0
2018-Jul-12 09:00N 55°42' E 012°36'0 0.0
2018-Jul-12 08:30N 55°42' E 012°36'0 0.0
2018-Jul-12 08:00N 55°42' E 012°36'0 0.8
2018-Jul-12 07:30N 55°42' E 012°36'611.0
2018-Jul-12 07:00N 55°47' E 012°42'815.6
2018-Jul-12 06:30N 55°55' E 012°39'816.1
2018-Jul-12 06:00N 56°03' E 012°39'815.1
2018-Jul-12 05:30N 56°08' E 012°30'815.7
2018-Jul-12 05:00N 56°15' E 012°24'916.9
2018-Jul-12 04:30N 56°23' E 012°17'817.1
2018-Jul-12 04:00N 56°31' E 012°13'816.9
2018-Jul-12 03:30N 56°39' E 012°07'917.0
2018-Jul-12 03:00N 56°46' E 012°00'917.1
2018-Jul-12 02:30N 56°53' E 011°50'816.4
2018-Jul-12 02:00N 56°60' E 011°42'816.8
2018-Jul-12 01:30N 57°08' E 011°37'  

Dump ship's entire track history